Mary Alice II — WDE3827 — position and weather

sailwx.info

Track history (hours):
 
Tides and Currents Weather Stations Pressure Air Temp Water Temp Dewpoint Dewpoint Depression Visibility Wind Speed Wind Dir Waves Ship Positions

Mary Alice II

Owner: Lakeshore Drive Investment, Rollins, MT. More information available from US FCC via Universal Licensing System and Coast Guard Vessel Documentation Center.

Last reported at 2015-May-31 17:33 UTC. Time now 2015-Jul-01 04:48 UTC.
Position N 52°21' W 128°31'.
Warning: this ship's position is 30 days out of date.

Length 40 m; draft 2.2 m.

Type: Pleasure craft. MMSI: 367344710.

Date/timePositionNaut miles runAvg speedWind from/ knotsBaromVisibWave heightAir tempDewpointWater temp
2015-May-31 17:33N 52°21' W 128°31'1212.2
2015-May-31 16:32N 52°14' W 128°14'45 2.2
2015-May-30 19:32N 51°31' W 127°51'1813.8
2015-May-30 18:13N 51°13' W 127°51'914.0
2015-May-30 17:33N 51°04' W 127°46'6 6.4
2015-May-30 16:33N 50°58' W 127°44'1313.3
2015-May-30 15:33N 50°50' W 127°27'1413.2
2015-May-30 14:31N 50°40' W 127°13'14 0.8
2015-May-29 21:27N 50°34' W 126°53'113 5.2
2015-May-28 23:28N 49°31' W 124°27'1413.8
2015-May-28 22:27N 49°21' W 124°12'1212.4
2015-May-28 21:28N 49°15' W 123°55'5 2.3
2015-May-28 19:16N 49°10' W 123°56'5 6.5
2015-May-28 18:33N 49°13' W 123°50'1313.3
2015-May-28 17:33N 49°09' W 123°31'1414.0
2015-May-28 16:33N 49°00' W 123°14'1413.8
2015-May-28 15:34N 48°52' W 122°58'1312.7
2015-May-28 14:33N 48°43' W 122°44'7 7.0
2015-May-28 13:33N 48°42' W 122°33'4 3.5
2015-May-28 12:32N 48°45' W 122°30'0 0.0
2015-May-28 11:32N 48°45' W 122°30'0 0.0
2015-May-28 10:32N 48°45' W 122°30'0 0.0
2015-May-28 09:32N 48°45' W 122°30'0 0.0
2015-May-28 08:29N 48°45' W 122°30'0 0.0
2015-May-28 07:32N 48°45' W 122°30'0 0.0
2015-May-28 06:32N 48°45' W 122°30'0 0.0
2015-May-28 05:32N 48°45' W 122°30'0 0.0
2015-May-28 04:32N 48°45' W 122°30'0 0.0
2015-May-28 03:29N 48°45' W 122°30'0 0.0
2015-May-28 02:32N 48°45' W 122°30'0 0.0
2015-May-28 01:29N 48°45' W 122°30'0 0.0
2015-May-28 00:32N 48°45' W 122°30'0 0.0
2015-May-27 23:29N 48°45' W 122°30'0 0.0
2015-May-27 22:23N 48°45' W 122°30'0 0.0
2015-May-27 21:23N 48°45' W 122°30'0 0.0
2015-May-27 20:29N 48°45' W 122°30'0 0.0
2015-May-27 19:32N 48°45' W 122°30'0 0.0
2015-May-27 18:29N 48°45' W 122°30'0 0.0
2015-May-27 17:32N 48°45' W 122°30'0 0.0
2015-May-27 16:29N 48°45' W 122°30'0 0.0
2015-May-27 15:32N 48°45' W 122°30'0 0.0
2015-May-27 14:32N 48°45' W 122°30'0 0.0
2015-May-27 13:26N 48°45' W 122°30'0 0.0
2015-May-27 12:29N 48°45' W 122°30'0 0.0
2015-May-27 11:29N 48°45' W 122°30'0 0.0
2015-May-27 10:32N 48°45' W 122°30'0 0.0
2015-May-27 09:32N 48°45' W 122°30'0 0.0
2015-May-27 08:26N 48°45' W 122°30'0 0.0
2015-May-27 07:32N 48°45' W 122°30'0 0.0
2015-May-27 06:32N 48°45' W 122°30'0 0.0
2015-May-27 05:32N 48°45' W 122°30'0 0.0
2015-May-27 04:29N 48°45' W 122°30'0 0.0
2015-May-27 03:32N 48°45' W 122°30'0 0.0
2015-May-27 02:29N 48°45' W 122°30'0 0.0
2015-May-27 01:32N 48°45' W 122°30'0 0.0
2015-May-27 00:29N 48°45' W 122°30'0 0.0
2015-May-26 23:29N 48°45' W 122°30'0 0.0
2015-May-26 22:32N 48°45' W 122°30'0 0.0
2015-May-26 21:32N 48°45' W 122°30'0 0.0
2015-May-26 20:32N 48°45' W 122°30'0 0.0
2015-May-26 19:29N 48°45' W 122°30'0 0.0
2015-May-26 18:32N 48°45' W 122°30'0 0.0
2015-May-26 17:32N 48°45' W 122°30'0 0.0
2015-May-26 16:29N 48°45' W 122°30'0 0.0
2015-May-26 15:29N 48°45' W 122°30'0 0.0
2015-May-26 14:32N 48°45' W 122°30'0 0.0
2015-May-26 13:26N 48°45' W 122°30'0 0.0
2015-May-26 12:29N 48°45' W 122°30'0 0.0
2015-May-26 11:32N 48°45' W 122°30'0 0.0
2015-May-26 10:26N 48°45' W 122°30'0 0.0
2015-May-26 09:29N 48°45' W 122°30'0 0.0
2015-May-26 08:26N 48°45' W 122°30'0 0.0
2015-May-26 07:29N 48°45' W 122°30'0 0.0
2015-May-26 06:29N 48°45' W 122°30'0 0.0
2015-May-26 05:32N 48°45' W 122°30'0 0.0
2015-May-26 04:29N 48°45' W 122°30'0 0.0
2015-May-26 03:32N 48°45' W 122°30'0 0.0
2015-May-26 02:29N 48°45' W 122°30'0 0.0
2015-May-26 01:32N 48°45' W 122°30'0 0.0
2015-May-26 00:32N 48°45' W 122°30'0 0.0
2015-May-25 23:32N 48°45' W 122°30'0 0.2
2015-May-25 22:31N 48°45' W 122°31'1010.2
2015-May-25 21:33N 48°40' W 122°43'1211.7
2015-May-25 20:33N 48°40' W 123°01'7 6.2
2015-May-25 19:29N 48°37' W 123°09'0 0.0
2015-May-25 18:53N 48°37' W 123°09'0 0.0
2015-May-25 18:32N 48°37' W 123°09'0 0.0
2015-May-25 18:02N 48°37' W 123°09'0 0.0
2015-May-25 17:32N 48°37' W 123°09'0 0.0
2015-May-25 16:32N 48°37' W 123°09'0 0.0
2015-May-25 15:56N 48°37' W 123°09'0 0.0
2015-May-25 15:32N 48°37' W 123°09'0 0.0
2015-May-25 15:26N 48°37' W 123°09'0 0.0
2015-May-25 14:32N 48°37' W 123°09'0 0.0
2015-May-25 13:32N 48°37' W 123°09'0 0.0
2015-May-25 12:29N 48°37' W 123°09'0 0.0
2015-May-25 11:32N 48°37' W 123°09'0 0.1
2015-May-25 11:29N 48°37' W 123°09'0 0.0
2015-May-25 10:32N 48°37' W 123°09'0 0.0
2015-May-25 09:32N 48°37' W 123°09'0 0.0
2015-May-25 08:32N 48°37' W 123°09'0 0.0
2015-May-25 07:32N 48°37' W 123°09'0 0.0
2015-May-25 06:32N 48°37' W 123°09'0 0.0
2015-May-25 05:32N 48°37' W 123°09'0 0.0
2015-May-25 04:32N 48°37' W 123°09'0 0.0
2015-May-25 03:32N 48°37' W 123°09'0 0.0
2015-May-25 02:32N 48°37' W 123°09'0 0.0
2015-May-25 01:32N 48°37' W 123°09'0 0.0
2015-May-25 00:32N 48°37' W 123°09'0 0.0
2015-May-25 00:23N 48°37' W 123°09'0 0.0
2015-May-24 23:32N 48°37' W 123°09'0 0.0
2015-May-24 22:26N 48°37' W 123°09'0 0.0
2015-May-24 21:32N 48°37' W 123°09'0 0.0
2015-May-24 20:32N 48°37' W 123°09'0 0.0
2015-May-24 19:32N 48°37' W 123°09'0 0.0
2015-May-24 18:32N 48°37' W 123°09'0 0.3
2015-May-24 17:33N 48°37' W 123°10'7 6.8
2015-May-24 16:29N 48°32' W 123°01'0 0.0
2015-May-24 15:32N 48°32' W 123°01'0 0.0
2015-May-24 14:29N 48°32' W 123°01'0 0.0
2015-May-24 13:32N 48°32' W 123°01'0 0.0
2015-May-24 12:32N 48°32' W 123°01'0 0.0
2015-May-24 11:29N 48°32' W 123°01'0 0.0
2015-May-24 10:29N 48°32' W 123°01'0 0.0
2015-May-24 09:32N 48°32' W 123°01'0 0.0
2015-May-24 08:32N 48°32' W 123°01'0 0.0
2015-May-24 07:32N 48°32' W 123°01'0 0.0
2015-May-24 06:29N 48°32' W 123°01'0 0.0
2015-May-24 05:32N 48°32' W 123°01'0 0.0
2015-May-24 04:32N 48°32' W 123°01'0 0.0
2015-May-24 03:32N 48°32' W 123°01'0 0.0
2015-May-24 02:32N 48°32' W 123°01'0 0.0
2015-May-24 01:32N 48°32' W 123°01'0 0.0
2015-May-24 00:26N 48°32' W 123°01'0 0.0
2015-May-23 23:32N 48°32' W 123°01'0 0.0
2015-May-23 22:34N 48°32' W 123°01'1 1.7
2015-May-23 22:15N 48°33' W 123°00'811.2
2015-May-23 21:33N 48°25' W 122°57'3115.5
2015-May-23 19:32N 47°58' W 122°33'315.4
2015-May-23 19:19N 47°56' W 122°30'1114.9
2015-May-23 18:34N 47°45' W 122°26'037.0
2015-May-23 18:33N 47°45' W 122°26'7 7.2
2015-May-23 17:34N 47°38' W 122°23'0 0.0
2015-May-23 17:33N 47°38' W 122°23'0 0.0
2015-May-23 16:21N 47°38' W 122°23'0 0.0
2015-May-23 16:11N 47°38' W 122°23'0 0.0
2015-May-23 15:30N 47°38' W 122°23'0 0.0
2015-May-23 15:26N 47°38' W 122°23'0 0.0
2015-May-23 14:33N 47°38' W 122°23'0 0.0
2015-May-23 14:20N 47°38' W 122°23'0 0.0
2015-May-23 13:30N 47°38' W 122°23'0 0.0
2015-May-23 12:27N 47°38' W 122°23'0 0.0
2015-May-23 12:20N 47°38' W 122°23'0 0.0
2015-May-23 09:44N 47°38' W 122°23'0 0.0
2015-May-23 08:27N 47°38' W 122°23'0 0.0
2015-May-23 08:08N 47°38' W 122°23'0 0.0
2015-May-23 06:30N 47°38' W 122°23'0 0.1
2015-May-23 06:26N 47°38' W 122°23'0 0.0
2015-May-23 06:11N 47°38' W 122°23'0 0.0
2015-May-23 05:33N 47°38' W 122°23'0 0.0
2015-May-23 03:33N 47°38' W 122°23'0 0.0
2015-May-23 03:20N 47°38' W 122°23'0 0.0
2015-May-23 02:33N 47°38' W 122°23'0 0.0
2015-May-23 01:24N 47°38' W 122°23'0 0.0
2015-May-23 00:59N 47°38' W 122°23'0 0.0
2015-May-23 00:21N 47°38' W 122°23'0 0.0
2015-May-23 00:14N 47°38' W 122°23'0 0.0
2015-May-22 23:30N 47°38' W 122°23'0 0.0
2015-May-22 22:53N 47°38' W 122°23'0 0.0
2015-May-22 21:38N 47°38' W 122°23'0 1.8
2015-May-22 21:33N 47°38' W 122°23'1 7.5
2015-May-22 21:29N 47°37' W 122°23'1 1.4
2015-May-22 20:33N 47°37' W 122°21'0 0.0
2015-May-22 19:33N 47°37' W 122°21'0 0.0
2015-May-22 19:18N 47°37' W 122°21'0 0.0
2015-May-22 18:33N 47°37' W 122°21'0 0.0
2015-May-22 17:33N 47°37' W 122°21'0 0.0
2015-May-22 16:33N 47°37' W 122°21'0 0.0
2015-May-22 15:33N 47°37' W 122°21'0 0.0
2015-May-22 14:33N 47°37' W 122°21'0 0.0
2015-May-22 13:30N 47°37' W 122°21'0 0.0
2015-May-22 12:33N 47°37' W 122°21'0 0.0
2015-May-22 11:33N 47°37' W 122°21'0 0.0
2015-May-22 10:33N 47°37' W 122°21'0 0.0
2015-May-22 09:33N 47°37' W 122°21'0 0.0
2015-May-22 08:33N 47°37' W 122°21'0 0.0
2015-May-22 07:33N 47°37' W 122°21'0 0.0
2015-May-22 06:33N 47°37' W 122°21'0 0.0
2015-May-22 05:33N 47°37' W 122°21'0 0.0
2015-May-22 04:33N 47°37' W 122°21'0 0.0
2015-May-22 03:33N 47°37' W 122°21'0 0.0
2015-May-22 02:33N 47°37' W 122°21'0 0.0
2015-May-22 01:33N 47°37' W 122°21'0 0.0
2015-May-22 00:33N 47°37' W 122°21'0 0.0
2015-May-22 00:18N 47°37' W 122°21'0 0.0
2015-May-21 23:33N 47°37' W 122°21'0 0.0
2015-May-21 22:33N 47°37' W 122°21'0 0.0
2015-May-21 21:30N 47°37' W 122°21'0 0.0
2015-May-21 20:33N 47°37' W 122°21'0 0.0
2015-May-21 18:30N 47°37' W 122°21'  
Track history (hours):
 
Tides and Currents Weather Stations Pressure Air Temp Water Temp Dewpoint Dewpoint Depression Visibility Wind Speed Wind Dir Waves Ship Positions

Mary Alice II

Owner: Lakeshore Drive Investment, Rollins, MT. More information available from US FCC via Universal Licensing System and Coast Guard Vessel Documentation Center.

Last reported at 2015-May-31 17:33 UTC. Time now 2015-Jul-01 04:48 UTC.
Position N 52°21' W 128°31'.
Warning: this ship's position is 30 days out of date.

Length 40 m; draft 2.2 m.

Type: Pleasure craft. MMSI: 367344710.

Date/timePositionNaut miles runAvg speedWind from/ knotsBaromVisibWave heightAir tempDewpointWater temp
2015-May-31 17:33N 52°21' W 128°31'1212.2
2015-May-31 16:32N 52°14' W 128°14'45 2.2
2015-May-30 19:32N 51°31' W 127°51'1813.8
2015-May-30 18:13N 51°13' W 127°51'914.0
2015-May-30 17:33N 51°04' W 127°46'6 6.4
2015-May-30 16:33N 50°58' W 127°44'1313.3
2015-May-30 15:33N 50°50' W 127°27'1413.2
2015-May-30 14:31N 50°40' W 127°13'14 0.8
2015-May-29 21:27N 50°34' W 126°53'113 5.2
2015-May-28 23:28N 49°31' W 124°27'1413.8
2015-May-28 22:27N 49°21' W 124°12'1212.4
2015-May-28 21:28N 49°15' W 123°55'5 2.3
2015-May-28 19:16N 49°10' W 123°56'5 6.5
2015-May-28 18:33N 49°13' W 123°50'1313.3
2015-May-28 17:33N 49°09' W 123°31'1414.0
2015-May-28 16:33N 49°00' W 123°14'1413.8
2015-May-28 15:34N 48°52' W 122°58'1312.7
2015-May-28 14:33N 48°43' W 122°44'7 7.0
2015-May-28 13:33N 48°42' W 122°33'4 3.5
2015-May-28 12:32N 48°45' W 122°30'0 0.0
2015-May-28 11:32N 48°45' W 122°30'0 0.0
2015-May-28 10:32N 48°45' W 122°30'0 0.0
2015-May-28 09:32N 48°45' W 122°30'0 0.0
2015-May-28 08:29N 48°45' W 122°30'0 0.0
2015-May-28 07:32N 48°45' W 122°30'0 0.0
2015-May-28 06:32N 48°45' W 122°30'0 0.0
2015-May-28 05:32N 48°45' W 122°30'0 0.0
2015-May-28 04:32N 48°45' W 122°30'0 0.0
2015-May-28 03:29N 48°45' W 122°30'0 0.0
2015-May-28 02:32N 48°45' W 122°30'0 0.0
2015-May-28 01:29N 48°45' W 122°30'0 0.0
2015-May-28 00:32N 48°45' W 122°30'0 0.0
2015-May-27 23:29N 48°45' W 122°30'0 0.0
2015-May-27 22:23N 48°45' W 122°30'0 0.0
2015-May-27 21:23N 48°45' W 122°30'0 0.0
2015-May-27 20:29N 48°45' W 122°30'0 0.0
2015-May-27 19:32N 48°45' W 122°30'0 0.0
2015-May-27 18:29N 48°45' W 122°30'0 0.0
2015-May-27 17:32N 48°45' W 122°30'0 0.0
2015-May-27 16:29N 48°45' W 122°30'0 0.0
2015-May-27 15:32N 48°45' W 122°30'0 0.0
2015-May-27 14:32N 48°45' W 122°30'0 0.0
2015-May-27 13:26N 48°45' W 122°30'0 0.0
2015-May-27 12:29N 48°45' W 122°30'0 0.0
2015-May-27 11:29N 48°45' W 122°30'0 0.0
2015-May-27 10:32N 48°45' W 122°30'0 0.0
2015-May-27 09:32N 48°45' W 122°30'0 0.0
2015-May-27 08:26N 48°45' W 122°30'0 0.0
2015-May-27 07:32N 48°45' W 122°30'0 0.0
2015-May-27 06:32N 48°45' W 122°30'0 0.0
2015-May-27 05:32N 48°45' W 122°30'0 0.0
2015-May-27 04:29N 48°45' W 122°30'0 0.0
2015-May-27 03:32N 48°45' W 122°30'0 0.0
2015-May-27 02:29N 48°45' W 122°30'0 0.0
2015-May-27 01:32N 48°45' W 122°30'0 0.0
2015-May-27 00:29N 48°45' W 122°30'0 0.0
2015-May-26 23:29N 48°45' W 122°30'0 0.0
2015-May-26 22:32N 48°45' W 122°30'0 0.0
2015-May-26 21:32N 48°45' W 122°30'0 0.0
2015-May-26 20:32N 48°45' W 122°30'0 0.0
2015-May-26 19:29N 48°45' W 122°30'0 0.0
2015-May-26 18:32N 48°45' W 122°30'0 0.0
2015-May-26 17:32N 48°45' W 122°30'0 0.0
2015-May-26 16:29N 48°45' W 122°30'0 0.0
2015-May-26 15:29N 48°45' W 122°30'0 0.0
2015-May-26 14:32N 48°45' W 122°30'0 0.0
2015-May-26 13:26N 48°45' W 122°30'0 0.0
2015-May-26 12:29N 48°45' W 122°30'0 0.0
2015-May-26 11:32N 48°45' W 122°30'0 0.0
2015-May-26 10:26N 48°45' W 122°30'0 0.0
2015-May-26 09:29N 48°45' W 122°30'0 0.0
2015-May-26 08:26N 48°45' W 122°30'0 0.0
2015-May-26 07:29N 48°45' W 122°30'0 0.0
2015-May-26 06:29N 48°45' W 122°30'0 0.0
2015-May-26 05:32N 48°45' W 122°30'0 0.0
2015-May-26 04:29N 48°45' W 122°30'0 0.0
2015-May-26 03:32N 48°45' W 122°30'0 0.0
2015-May-26 02:29N 48°45' W 122°30'0 0.0
2015-May-26 01:32N 48°45' W 122°30'0 0.0
2015-May-26 00:32N 48°45' W 122°30'0 0.0
2015-May-25 23:32N 48°45' W 122°30'0 0.2
2015-May-25 22:31N 48°45' W 122°31'1010.2
2015-May-25 21:33N 48°40' W 122°43'1211.7
2015-May-25 20:33N 48°40' W 123°01'7 6.2
2015-May-25 19:29N 48°37' W 123°09'0 0.0
2015-May-25 18:53N 48°37' W 123°09'0 0.0
2015-May-25 18:32N 48°37' W 123°09'0 0.0
2015-May-25 18:02N 48°37' W 123°09'0 0.0
2015-May-25 17:32N 48°37' W 123°09'0 0.0
2015-May-25 16:32N 48°37' W 123°09'0 0.0
2015-May-25 15:56N 48°37' W 123°09'0 0.0
2015-May-25 15:32N 48°37' W 123°09'0 0.0
2015-May-25 15:26N 48°37' W 123°09'0 0.0
2015-May-25 14:32N 48°37' W 123°09'0 0.0
2015-May-25 13:32N 48°37' W 123°09'0 0.0
2015-May-25 12:29N 48°37' W 123°09'0 0.0
2015-May-25 11:32N 48°37' W 123°09'0 0.1
2015-May-25 11:29N 48°37' W 123°09'0 0.0
2015-May-25 10:32N 48°37' W 123°09'0 0.0
2015-May-25 09:32N 48°37' W 123°09'0 0.0
2015-May-25 08:32N 48°37' W 123°09'0 0.0
2015-May-25 07:32N 48°37' W 123°09'0 0.0
2015-May-25 06:32N 48°37' W 123°09'0 0.0
2015-May-25 05:32N 48°37' W 123°09'0 0.0
2015-May-25 04:32N 48°37' W 123°09'0 0.0
2015-May-25 03:32N 48°37' W 123°09'0 0.0
2015-May-25 02:32N 48°37' W 123°09'0 0.0
2015-May-25 01:32N 48°37' W 123°09'0 0.0
2015-May-25 00:32N 48°37' W 123°09'0 0.0
2015-May-25 00:23N 48°37' W 123°09'0 0.0
2015-May-24 23:32N 48°37' W 123°09'0 0.0
2015-May-24 22:26N 48°37' W 123°09'0 0.0
2015-May-24 21:32N 48°37' W 123°09'0 0.0
2015-May-24 20:32N 48°37' W 123°09'0 0.0
2015-May-24 19:32N 48°37' W 123°09'0 0.0
2015-May-24 18:32N 48°37' W 123°09'0 0.3
2015-May-24 17:33N 48°37' W 123°10'7 6.8
2015-May-24 16:29N 48°32' W 123°01'0 0.0
2015-May-24 15:32N 48°32' W 123°01'0 0.0
2015-May-24 14:29N 48°32' W 123°01'0 0.0
2015-May-24 13:32N 48°32' W 123°01'0 0.0
2015-May-24 12:32N 48°32' W 123°01'0 0.0
2015-May-24 11:29N 48°32' W 123°01'0 0.0
2015-May-24 10:29N 48°32' W 123°01'0 0.0
2015-May-24 09:32N 48°32' W 123°01'0 0.0
2015-May-24 08:32N 48°32' W 123°01'0 0.0
2015-May-24 07:32N 48°32' W 123°01'0 0.0
2015-May-24 06:29N 48°32' W 123°01'0 0.0
2015-May-24 05:32N 48°32' W 123°01'0 0.0
2015-May-24 04:32N 48°32' W 123°01'0 0.0
2015-May-24 03:32N 48°32' W 123°01'0 0.0
2015-May-24 02:32N 48°32' W 123°01'0 0.0
2015-May-24 01:32N 48°32' W 123°01'0 0.0
2015-May-24 00:26N 48°32' W 123°01'0 0.0
2015-May-23 23:32N 48°32' W 123°01'0 0.0
2015-May-23 22:34N 48°32' W 123°01'1 1.7
2015-May-23 22:15N 48°33' W 123°00'811.2
2015-May-23 21:33N 48°25' W 122°57'3115.5
2015-May-23 19:32N 47°58' W 122°33'315.4
2015-May-23 19:19N 47°56' W 122°30'1114.9
2015-May-23 18:34N 47°45' W 122°26'037.0
2015-May-23 18:33N 47°45' W 122°26'7 7.2
2015-May-23 17:34N 47°38' W 122°23'0 0.0
2015-May-23 17:33N 47°38' W 122°23'0 0.0
2015-May-23 16:21N 47°38' W 122°23'0 0.0
2015-May-23 16:11N 47°38' W 122°23'0 0.0
2015-May-23 15:30N 47°38' W 122°23'0 0.0
2015-May-23 15:26N 47°38' W 122°23'0 0.0
2015-May-23 14:33N 47°38' W 122°23'0 0.0
2015-May-23 14:20N 47°38' W 122°23'0 0.0
2015-May-23 13:30N 47°38' W 122°23'0 0.0
2015-May-23 12:27N 47°38' W 122°23'0 0.0
2015-May-23 12:20N 47°38' W 122°23'0 0.0
2015-May-23 09:44N 47°38' W 122°23'0 0.0
2015-May-23 08:27N 47°38' W 122°23'0 0.0
2015-May-23 08:08N 47°38' W 122°23'0 0.0
2015-May-23 06:30N 47°38' W 122°23'0 0.1
2015-May-23 06:26N 47°38' W 122°23'0 0.0
2015-May-23 06:11N 47°38' W 122°23'0 0.0
2015-May-23 05:33N 47°38' W 122°23'0 0.0
2015-May-23 03:33N 47°38' W 122°23'0 0.0
2015-May-23 03:20N 47°38' W 122°23'0 0.0
2015-May-23 02:33N 47°38' W 122°23'0 0.0
2015-May-23 01:24N 47°38' W 122°23'0 0.0
2015-May-23 00:59N 47°38' W 122°23'0 0.0
2015-May-23 00:21N 47°38' W 122°23'0 0.0
2015-May-23 00:14N 47°38' W 122°23'0 0.0
2015-May-22 23:30N 47°38' W 122°23'0 0.0
2015-May-22 22:53N 47°38' W 122°23'0 0.0
2015-May-22 21:38N 47°38' W 122°23'0 1.8
2015-May-22 21:33N 47°38' W 122°23'1 7.5
2015-May-22 21:29N 47°37' W 122°23'1 1.4
2015-May-22 20:33N 47°37' W 122°21'0 0.0
2015-May-22 19:33N 47°37' W 122°21'0 0.0
2015-May-22 19:18N 47°37' W 122°21'0 0.0
2015-May-22 18:33N 47°37' W 122°21'0 0.0
2015-May-22 17:33N 47°37' W 122°21'0 0.0
2015-May-22 16:33N 47°37' W 122°21'0 0.0
2015-May-22 15:33N 47°37' W 122°21'0 0.0
2015-May-22 14:33N 47°37' W 122°21'0 0.0
2015-May-22 13:30N 47°37' W 122°21'0 0.0
2015-May-22 12:33N 47°37' W 122°21'0 0.0
2015-May-22 11:33N 47°37' W 122°21'0 0.0
2015-May-22 10:33N 47°37' W 122°21'0 0.0
2015-May-22 09:33N 47°37' W 122°21'0 0.0
2015-May-22 08:33N 47°37' W 122°21'0 0.0
2015-May-22 07:33N 47°37' W 122°21'0 0.0
2015-May-22 06:33N 47°37' W 122°21'0 0.0
2015-May-22 05:33N 47°37' W 122°21'0 0.0
2015-May-22 04:33N 47°37' W 122°21'0 0.0
2015-May-22 03:33N 47°37' W 122°21'0 0.0
2015-May-22 02:33N 47°37' W 122°21'0 0.0
2015-May-22 01:33N 47°37' W 122°21'0 0.0
2015-May-22 00:33N 47°37' W 122°21'0 0.0
2015-May-22 00:18N 47°37' W 122°21'0 0.0
2015-May-21 23:33N 47°37' W 122°21'0 0.0
2015-May-21 22:33N 47°37' W 122°21'0 0.0
2015-May-21 21:30N 47°37' W 122°21'0 0.0
2015-May-21 20:33N 47°37' W 122°21'0 0.0
2015-May-21 18:30N 47°37' W 122°21'  

Dump ship's entire track history